< < Back
Terminal Aerodrome Forecast


Current Version              Previous Versions:   1  2  3  4  5  6  7  8  9  

Terminal Aerodrome Forecast

435
FTUS42 KGSP 252058 AAA
TAFCLT
TAF AMD
KCLT 252058Z 2521/2618 22003KT P6SM FEW070 SCT250
     FM261400 33003KT P6SM SCT045
     FM261600 05004KT P6SM SCT045=



Latest METAR

981
SAUS70 KWBC 252100 RRF
MTRCLT
METAR KCLT 252052Z 00000KT 10SM FEW065 SCT250 33/17 A3010 RMK AO2 SLP182
T03330172 56016


USA.gov is the U.S. government's official web portal to all federal, state and local government web resources and services.